createdAt,value
2022-10-23T00:01:27.823Z,73.73
2022-10-23T00:04:02.113Z,73.95
2022-10-23T00:06:35.796Z,73.79
2022-10-23T00:09:09.922Z,73.81
2022-10-23T00:11:42.414Z,74.22
2022-10-23T00:14:16.507Z,74.52
2022-10-23T00:16:50.729Z,74.53
2022-10-23T00:19:23.225Z,73.90
2022-10-23T00:21:55.587Z,74.47
2022-10-23T00:24:28.118Z,74.61
2022-10-23T00:27:00.639Z,74.44
2022-10-23T00:29:33.129Z,74.30
2022-10-23T00:32:06.958Z,74.76
2022-10-23T00:34:39.385Z,74.81
2022-10-23T00:37:11.915Z,74.67
2022-10-23T00:39:44.403Z,74.07
2022-10-23T00:42:18.517Z,74.74
2022-10-23T00:45:17.362Z,74.34
2022-10-23T00:47:51.683Z,75.15
2022-10-23T00:50:26.035Z,74.69
2022-10-23T00:53:04.791Z,74.76
2022-10-23T00:55:38.515Z,74.16
2022-10-23T00:58:11.534Z,74.19
2022-10-23T01:00:47.478Z,74.24
2022-10-23T01:03:25.266Z,75.03
2022-10-23T01:06:05.344Z,74.45
2022-10-23T01:08:47.306Z,74.42
2022-10-23T01:11:24.977Z,74.99
2022-10-23T01:16:46.490Z,74.59
2022-10-23T01:19:29.422Z,74.98
2022-10-23T01:22:13.468Z,74.61
2022-10-23T01:24:53.837Z,74.41
2022-10-23T01:27:32.940Z,75.06
2022-10-23T01:30:08.213Z,74.77
2022-10-23T01:32:51.229Z,74.56
2022-10-23T01:35:27.973Z,74.06
2022-10-23T01:38:12.806Z,74.04
2022-10-23T01:40:55.143Z,74.66
2022-10-23T01:43:34.513Z,74.82
2022-10-23T01:46:11.093Z,74.43
2022-10-23T01:48:51.507Z,74.38
2022-10-23T01:51:28.148Z,74.41
2022-10-23T01:54:09.735Z,74.80
2022-10-23T01:56:46.752Z,74.37
2022-10-23T01:59:24.309Z,74.54
2022-10-23T02:01:59.339Z,74.77
2022-10-23T02:04:36.958Z,73.95
2022-10-23T02:07:09.532Z,74.85
2022-10-23T02:09:41.985Z,74.28
2022-10-23T02:12:19.730Z,74.72
2022-10-23T02:14:58.430Z,74.58
2022-10-23T02:17:41.835Z,74.31
2022-10-23T02:20:21.225Z,73.76
2022-10-23T02:23:01.422Z,74.55
2022-10-23T02:25:39.336Z,74.47
2022-10-23T02:28:16.064Z,74.27
2022-10-23T02:30:52.851Z,75.02
2022-10-23T02:33:27.586Z,74.67
2022-10-23T02:36:00.240Z,74.89
2022-10-23T02:38:35.913Z,74.68
2022-10-23T02:41:25.357Z,74.77
2022-10-23T02:44:08.359Z,74.85
2022-10-23T02:46:50.716Z,74.23
2022-10-23T02:49:30.216Z,74.07
2022-10-23T02:52:09.862Z,74.57
2022-10-23T02:55:04.380Z,74.42
2022-10-23T02:57:52.938Z,73.77
2022-10-23T03:00:25.965Z,74.30
2022-10-23T03:03:06.801Z,73.66
2022-10-23T03:05:41.632Z,73.82
2022-10-23T03:08:15.227Z,74.74
2022-10-23T03:13:21.018Z,74.67
2022-10-23T03:15:53.572Z,73.81
2022-10-23T03:18:27.526Z,74.40
2022-10-23T03:21:04.370Z,74.34
2022-10-23T03:23:39.149Z,74.27
2022-10-23T03:26:11.697Z,74.57
2022-10-23T03:28:48.159Z,73.89
2022-10-23T03:31:22.461Z,74.21
2022-10-23T03:34:04.021Z,74.73
2022-10-23T03:36:38.919Z,74.74
2022-10-23T03:39:12.869Z,74.63
2022-10-23T03:41:45.311Z,74.75
2022-10-23T03:44:20.451Z,73.93
2022-10-23T03:46:53.064Z,74.34
2022-10-23T03:49:28.223Z,74.74
2022-10-23T03:52:08.724Z,74.08
2022-10-23T03:54:41.192Z,74.19
2022-10-23T03:57:13.719Z,74.35
2022-10-23T03:59:46.217Z,74.47
2022-10-23T04:02:19.134Z,74.41
2022-10-23T04:04:52.977Z,74.57
2022-10-23T04:07:25.732Z,74.59
2022-10-23T04:09:58.870Z,74.05
2022-10-23T04:12:31.393Z,74.50
2022-10-23T04:15:04.218Z,74.51
2022-10-23T04:17:36.795Z,74.18
2022-10-23T04:20:11.779Z,75.00
2022-10-23T04:22:44.610Z,74.66
2022-10-23T04:25:17.546Z,74.16
2022-10-23T04:27:51.091Z,74.64
2022-10-23T04:30:23.800Z,74.29
2022-10-23T04:32:56.221Z,74.67
2022-10-23T04:35:30.094Z,74.42
2022-10-23T04:38:02.960Z,74.79
2022-10-23T04:40:35.763Z,74.74
2022-10-23T04:43:08.803Z,74.74
2022-10-23T04:45:43.966Z,74.98
2022-10-23T04:48:16.733Z,74.29
2022-10-23T04:51:10.928Z,74.91
2022-10-23T04:54:09.763Z,74.64
2022-10-23T04:56:47.891Z,74.86
2022-10-23T04:59:23.956Z,75.27
2022-10-23T05:01:56.564Z,74.83
2022-10-23T05:04:29.853Z,74.94
2022-10-23T05:10:10.263Z,75.01
2022-10-23T05:12:48.214Z,75.02
2022-10-23T05:15:20.755Z,74.86
2022-10-23T05:17:58.790Z,75.08
2022-10-23T05:20:35.194Z,74.85
2022-10-23T05:23:11.770Z,74.92
2022-10-23T05:25:44.611Z,75.09
2022-10-23T05:28:21.273Z,74.54
2022-10-23T05:30:53.883Z,74.75
2022-10-23T05:33:32.765Z,75.11
2022-10-23T05:36:06.623Z,74.74
2022-10-23T05:38:41.294Z,74.91
2022-10-23T05:41:21.263Z,74.74
2022-10-23T05:43:54.331Z,75.15
2022-10-23T05:46:45.264Z,75.28
2022-10-23T05:49:24.864Z,74.76
2022-10-23T05:52:32.554Z,74.69
2022-10-23T05:55:19.285Z,74.93
2022-10-23T05:58:03.289Z,74.69
2022-10-23T06:00:56.073Z,75.23
2022-10-23T06:04:00.518Z,75.67
2022-10-23T06:06:51.472Z,75.23
2022-10-23T06:09:23.955Z,75.79
2022-10-23T06:12:03.324Z,75.59
2022-10-23T06:14:37.502Z,75.31
2022-10-23T06:17:10.001Z,75.65
2022-10-23T06:19:47.187Z,75.30
2022-10-23T06:22:23.128Z,75.71
2022-10-23T06:25:01.063Z,75.80
2022-10-23T06:27:36.956Z,75.85
2022-10-23T06:30:12.374Z,75.98
2022-10-23T06:32:45.567Z,75.41
2022-10-23T06:35:18.358Z,75.58
2022-10-23T06:37:51.094Z,75.26
2022-10-23T06:40:35.825Z,76.16
2022-10-23T06:43:12.676Z,76.14
2022-10-23T06:46:02.846Z,75.97
2022-10-23T06:49:07.621Z,76.28
2022-10-23T06:51:49.301Z,75.90
2022-10-23T06:54:26.463Z,76.13
2022-10-23T06:57:21.625Z,76.01
2022-10-23T06:59:56.366Z,76.14
2022-10-23T07:02:30.650Z,76.00
2022-10-23T07:05:07.680Z,76.32
2022-10-23T07:07:42.503Z,76.16
2022-10-23T07:10:16.352Z,76.57
2022-10-23T07:12:52.344Z,76.75
2022-10-23T07:15:52.551Z,76.35
2022-10-23T07:18:29.828Z,77.02
2022-10-23T07:21:21.038Z,76.52
2022-10-23T07:23:56.249Z,76.87
2022-10-23T07:26:29.081Z,77.04
2022-10-23T07:29:02.808Z,76.84
2022-10-23T07:31:37.696Z,77.23
2022-10-23T07:34:45.634Z,76.69
2022-10-23T07:37:30.729Z,77.42
2022-10-23T07:40:07.750Z,77.58
2022-10-23T07:42:46.755Z,77.56
2022-10-23T07:45:20.502Z,77.46
2022-10-23T07:47:55.126Z,77.79
2022-10-23T07:50:30.951Z,77.87
2022-10-23T07:53:03.445Z,77.95
2022-10-23T07:55:51.215Z,78.03
2022-10-23T07:58:26.149Z,78.03
2022-10-23T08:01:18.322Z,78.25
2022-10-23T08:03:53.336Z,77.82
2022-10-23T08:06:26.401Z,77.90
2022-10-23T08:09:00.978Z,78.10
2022-10-23T08:11:36.529Z,78.13
2022-10-23T08:14:11.425Z,78.55
2022-10-23T08:16:46.363Z,78.47
2022-10-23T08:19:23.077Z,78.20
2022-10-23T08:21:58.485Z,78.72
2022-10-23T08:24:31.078Z,78.84
2022-10-23T08:27:03.677Z,78.48
2022-10-23T08:29:38.686Z,78.79
2022-10-23T08:32:11.434Z,79.12
2022-10-23T08:35:11.700Z,78.70
2022-10-23T08:37:44.941Z,79.16
2022-10-23T08:40:20.056Z,78.90
2022-10-23T08:43:22.421Z,78.91
2022-10-23T08:46:13.295Z,78.74
2022-10-23T08:49:17.598Z,78.82
2022-10-23T08:51:59.346Z,79.08
2022-10-23T08:54:45.111Z,79.32
2022-10-23T08:57:18.797Z,79.15
2022-10-23T08:59:58.171Z,79.62
2022-10-23T09:02:36.156Z,79.56
2022-10-23T09:05:15.998Z,79.92
2022-10-23T09:08:01.694Z,80.38
2022-10-23T09:10:56.744Z,80.08
2022-10-23T09:14:01.349Z,80.34
2022-10-23T09:16:49.617Z,80.42
2022-10-23T09:19:28.222Z,80.51
2022-10-23T09:22:01.013Z,81.29
2022-10-23T09:24:34.969Z,80.74
2022-10-23T09:27:11.235Z,80.80
2022-10-23T09:29:49.275Z,81.02
2022-10-23T09:32:33.518Z,80.91
2022-10-23T09:35:07.251Z,80.66
2022-10-23T09:37:48.605Z,80.92
2022-10-23T09:40:30.668Z,80.96
2022-10-23T09:43:04.804Z,81.06
2022-10-23T09:45:39.207Z,80.96
2022-10-23T09:48:16.433Z,81.01
2022-10-23T09:50:51.918Z,81.33
2022-10-23T09:53:32.089Z,81.36
2022-10-23T09:56:24.533Z,81.25
2022-10-23T09:58:59.968Z,81.11
2022-10-23T10:01:38.714Z,81.33
2022-10-23T10:04:39.165Z,81.20
2022-10-23T10:07:19.937Z,81.39
2022-10-23T10:09:54.115Z,81.48
2022-10-23T10:12:43.500Z,81.25
2022-10-23T10:15:22.806Z,81.57
2022-10-23T10:18:02.998Z,81.67
2022-10-23T10:20:50.044Z,81.77
2022-10-23T10:23:32.544Z,81.60
2022-10-23T10:26:15.784Z,81.78
2022-10-23T10:29:02.516Z,81.74
2022-10-23T10:31:50.669Z,81.98
2022-10-23T10:34:30.445Z,81.86
2022-10-23T10:37:12.397Z,81.69
2022-10-23T10:39:52.286Z,81.95
2022-10-23T10:42:40.273Z,82.35
2022-10-23T10:45:26.170Z,81.56
2022-10-23T10:48:24.043Z,81.59
2022-10-23T10:51:24.313Z,81.18
2022-10-23T10:54:12.041Z,81.07
2022-10-23T10:56:45.770Z,80.98
2022-10-23T10:59:23.029Z,81.00
2022-10-23T11:02:02.404Z,80.87
2022-10-23T11:04:39.156Z,80.69
2022-10-23T11:07:15.450Z,80.80
2022-10-23T11:09:48.436Z,80.87
2022-10-23T11:12:24.085Z,80.79
2022-10-23T11:14:57.230Z,80.69
2022-10-23T11:17:38.883Z,80.93
2022-10-23T11:20:25.482Z,80.96
2022-10-23T11:23:06.590Z,80.97
2022-10-23T11:25:52.502Z,80.80
2022-10-23T11:28:39.940Z,80.90
2022-10-23T11:31:22.450Z,80.97
2022-10-23T11:34:23.360Z,80.77
2022-10-23T11:36:58.752Z,80.48
2022-10-23T11:39:33.000Z,80.83
2022-10-23T11:42:15.690Z,80.68
2022-10-23T11:44:49.807Z,80.95
2022-10-23T11:47:36.308Z,80.76
2022-10-23T11:50:23.892Z,80.94
2022-10-23T11:53:20.013Z,80.74
2022-10-23T11:56:01.502Z,80.96
2022-10-23T11:58:44.436Z,80.96
2022-10-23T12:01:26.303Z,80.93
2022-10-23T12:04:02.857Z,80.93
2022-10-23T12:06:41.940Z,80.84
2022-10-23T12:09:30.961Z,80.76
2022-10-23T12:12:14.966Z,81.11
2022-10-23T12:14:49.097Z,80.76
2022-10-23T12:17:35.987Z,80.38
2022-10-23T12:20:28.201Z,80.74
2022-10-23T12:23:21.761Z,80.88
2022-10-23T12:26:12.911Z,80.98
2022-10-23T12:28:55.017Z,80.91
2022-10-23T12:31:36.562Z,80.97
2022-10-23T12:34:23.112Z,80.95
2022-10-23T12:37:16.446Z,80.86
2022-10-23T12:39:55.306Z,80.82
2022-10-23T12:42:29.971Z,81.11
2022-10-23T12:45:06.103Z,81.17
2022-10-23T12:47:39.449Z,80.95
2022-10-23T12:50:18.957Z,81.07
2022-10-23T12:52:53.179Z,81.17
2022-10-23T12:55:32.154Z,81.08
2022-10-23T12:58:19.723Z,81.13
2022-10-23T13:00:56.795Z,81.24
2022-10-23T13:03:32.957Z,81.31
2022-10-23T13:06:06.042Z,81.22
2022-10-23T13:08:44.489Z,81.32
2022-10-23T13:11:35.251Z,81.34
2022-10-23T13:14:12.859Z,81.33
2022-10-23T13:16:47.806Z,81.18
2022-10-23T13:19:26.069Z,81.46
2022-10-23T13:22:21.490Z,81.24
2022-10-23T13:24:54.151Z,81.44
2022-10-23T13:27:33.808Z,81.55
2022-10-23T13:30:30.520Z,81.35
2022-10-23T13:33:14.652Z,81.21
2022-10-23T13:35:57.578Z,81.40
2022-10-23T13:38:32.013Z,81.28
2022-10-23T13:41:06.700Z,81.66
2022-10-23T13:43:40.932Z,81.62
2022-10-23T13:46:15.073Z,81.51
2022-10-23T13:48:48.348Z,81.69
2022-10-23T13:51:22.819Z,82.18
2022-10-23T13:53:56.238Z,81.71
2022-10-23T13:56:29.274Z,81.48
2022-10-23T13:59:03.369Z,81.81
2022-10-23T14:01:36.265Z,81.72
2022-10-23T14:04:09.653Z,81.63
2022-10-23T14:06:42.560Z,81.63
2022-10-23T14:09:17.607Z,81.49
2022-10-23T14:11:50.130Z,81.60
2022-10-23T14:14:24.130Z,81.47
2022-10-23T14:16:56.828Z,81.51
2022-10-23T14:19:29.667Z,81.66
2022-10-23T14:22:02.447Z,81.71
2022-10-23T14:24:35.941Z,81.56
2022-10-23T14:27:08.415Z,81.71
2022-10-23T14:29:42.647Z,82.15
2022-10-23T14:32:15.478Z,81.37
2022-10-23T14:34:51.779Z,81.73
2022-10-23T14:37:26.461Z,81.76
2022-10-23T14:39:59.407Z,81.72
2022-10-23T14:42:34.618Z,81.84
2022-10-23T14:45:09.964Z,81.84
2022-10-23T14:47:46.465Z,81.77
2022-10-23T14:50:19.443Z,81.72
2022-10-23T14:52:52.009Z,81.97
2022-10-23T14:55:24.427Z,81.67
2022-10-23T14:57:57.523Z,81.83
2022-10-23T15:00:31.728Z,81.90
2022-10-23T15:03:04.284Z,81.69
2022-10-23T15:05:41.877Z,81.90
2022-10-23T15:08:14.572Z,81.81
2022-10-23T15:10:47.209Z,81.60
2022-10-23T15:13:19.884Z,81.74
2022-10-23T15:16:01.868Z,81.85
2022-10-23T15:21:14.526Z,81.67
2022-10-23T15:23:47.403Z,81.93
2022-10-23T15:26:23.107Z,81.98
2022-10-23T15:28:57.290Z,81.93
2022-10-23T15:31:52.106Z,81.79
2022-10-23T15:34:26.871Z,81.76
2022-10-23T15:37:00.036Z,81.75
2022-10-23T15:39:33.996Z,82.08
2022-10-23T15:42:06.929Z,82.02
2022-10-23T15:44:40.477Z,82.10
2022-10-23T15:47:14.499Z,82.05
2022-10-23T15:49:47.140Z,81.81
2022-10-23T15:52:19.712Z,82.18
2022-10-23T15:54:52.200Z,81.92
2022-10-23T15:57:24.631Z,81.80
2022-10-23T15:59:57.196Z,81.83
2022-10-23T16:02:31.289Z,82.18
2022-10-23T16:05:04.486Z,82.07
2022-10-23T16:07:37.072Z,82.11
2022-10-23T16:10:09.874Z,82.18
2022-10-23T16:12:42.804Z,82.26
2022-10-23T16:15:15.527Z,82.13
2022-10-23T16:17:49.467Z,82.11
2022-10-23T16:20:22.090Z,82.26
2022-10-23T16:22:55.207Z,82.11
2022-10-23T16:25:30.905Z,82.10
2022-10-23T16:28:04.199Z,81.94
2022-10-23T16:30:41.131Z,82.15
2022-10-23T16:33:15.072Z,81.65
2022-10-23T16:35:47.652Z,81.98
2022-10-23T16:38:24.800Z,82.14
2022-10-23T16:40:57.614Z,82.35
2022-10-23T16:43:50.029Z,82.03
2022-10-23T16:46:42.552Z,82.22
2022-10-23T16:49:16.690Z,82.16
2022-10-23T16:51:49.290Z,82.11
2022-10-23T16:54:21.988Z,82.16
2022-10-23T16:56:54.669Z,82.14
2022-10-23T16:59:27.484Z,82.15
2022-10-23T17:02:00.312Z,82.50
2022-10-23T17:04:35.980Z,82.21
2022-10-23T17:07:08.873Z,81.82
2022-10-23T17:09:44.766Z,82.18
2022-10-23T17:12:18.117Z,82.62
2022-10-23T17:14:50.818Z,82.07
2022-10-23T17:17:23.305Z,82.27
2022-10-23T17:19:57.342Z,82.55
2022-10-23T17:22:30.170Z,82.66
2022-10-23T17:25:03.110Z,82.46
2022-10-23T17:27:36.224Z,82.25
2022-10-23T17:30:12.697Z,82.48
2022-10-23T17:32:46.419Z,82.40
2022-10-23T17:35:21.320Z,82.78
2022-10-23T17:37:55.574Z,82.20
2022-10-23T17:40:31.050Z,82.38
2022-10-23T17:43:04.552Z,82.02
2022-10-23T17:45:37.370Z,82.28
2022-10-23T17:48:10.047Z,82.53
2022-10-23T17:50:44.090Z,82.44
2022-10-23T17:53:16.790Z,82.55
2022-10-23T17:55:49.464Z,82.61
2022-10-23T17:58:22.114Z,82.30
2022-10-23T18:00:54.728Z,82.36
2022-10-23T18:03:27.312Z,82.53
2022-10-23T18:06:06.514Z,82.47
2022-10-23T18:08:40.430Z,82.52
2022-10-23T18:11:15.887Z,82.73
2022-10-23T18:13:49.285Z,82.43
2022-10-23T18:16:21.988Z,82.89
2022-10-23T18:18:55.183Z,82.65
2022-10-23T18:21:29.149Z,82.81
2022-10-23T18:24:02.265Z,82.89
2022-10-23T18:26:37.767Z,82.44
2022-10-23T18:29:12.035Z,82.72
2022-10-23T18:31:45.413Z,82.70
2022-10-23T18:34:20.163Z,82.51
2022-10-23T18:36:55.240Z,82.47
2022-10-23T18:39:28.713Z,82.48
2022-10-23T18:42:01.264Z,82.72
2022-10-23T18:44:34.021Z,82.95
2022-10-23T18:47:06.798Z,83.08
2022-10-23T18:49:39.305Z,82.51
2022-10-23T18:52:13.259Z,82.76
2022-10-23T18:54:45.900Z,82.70
2022-10-23T18:57:18.606Z,82.91
2022-10-23T18:59:51.249Z,82.83
2022-10-23T19:02:24.053Z,83.23
2022-10-23T19:04:56.988Z,82.82
2022-10-23T19:07:31.198Z,82.71
2022-10-23T19:10:04.161Z,82.92
2022-10-23T19:12:37.155Z,82.87
2022-10-23T19:15:10.716Z,82.73
2022-10-23T19:17:43.658Z,83.23
2022-10-23T19:20:20.012Z,82.85
2022-10-23T19:22:55.815Z,82.45
2022-10-23T19:25:32.048Z,82.86
2022-10-23T19:28:05.347Z,82.53
2022-10-23T19:30:38.125Z,82.89
2022-10-23T19:33:10.779Z,82.92
2022-10-23T19:35:43.405Z,82.82
2022-10-23T19:38:17.283Z,82.86
2022-10-23T19:40:50.192Z,82.75
2022-10-23T19:43:22.801Z,82.85
2022-10-23T19:45:55.566Z,82.89
2022-10-23T19:48:28.232Z,82.80
2022-10-23T19:51:00.878Z,82.76
2022-10-23T19:53:35.857Z,82.70
2022-10-23T19:56:11.160Z,82.56
2022-10-23T19:58:43.795Z,82.91
2022-10-23T20:01:18.832Z,82.82
2022-10-23T20:03:51.921Z,82.30
2022-10-23T20:06:26.575Z,83.02
2022-10-23T20:09:00.952Z,82.79
2022-10-23T20:11:33.836Z,82.74
2022-10-23T20:14:09.881Z,82.86
2022-10-23T20:16:50.064Z,82.55
2022-10-23T20:19:24.954Z,82.71
2022-10-23T20:21:57.378Z,82.73
2022-10-23T20:24:31.477Z,82.68
2022-10-23T20:27:04.263Z,82.54
2022-10-23T20:29:36.904Z,82.83
2022-10-23T20:32:09.724Z,82.68
2022-10-23T20:34:42.756Z,82.45
2022-10-23T20:37:15.808Z,82.51
2022-10-23T20:39:50.126Z,82.39
2022-10-23T20:42:22.521Z,82.46
2022-10-23T20:44:54.924Z,82.52
2022-10-23T20:47:27.422Z,82.61
2022-10-23T20:49:59.940Z,82.63
2022-10-23T20:55:07.962Z,82.31
2022-10-23T20:57:40.485Z,82.51
2022-10-23T21:00:13.560Z,82.42
2022-10-23T21:02:48.565Z,82.24
2022-10-23T21:05:23.635Z,82.35
2022-10-23T21:07:56.390Z,82.38
2022-10-23T21:13:03.297Z,82.34
2022-10-23T21:15:35.705Z,82.34
2022-10-23T21:18:27.475Z,82.03
2022-10-23T21:21:10.061Z,82.26
2022-10-23T21:23:42.494Z,82.19
2022-10-23T21:26:17.765Z,82.17
2022-10-23T21:28:56.163Z,82.09
2022-10-23T21:31:33.967Z,82.11
2022-10-23T21:34:06.511Z,82.24
2022-10-23T21:36:48.549Z,82.42
2022-10-23T21:39:31.532Z,82.20
2022-10-23T21:42:05.818Z,82.25
2022-10-23T21:44:38.278Z,81.91
2022-10-23T21:47:10.786Z,82.11
2022-10-23T21:49:44.169Z,82.04
2022-10-23T21:52:19.056Z,82.04
2022-10-23T21:54:52.458Z,81.83
2022-10-23T21:57:29.558Z,81.95
2022-10-23T22:00:02.037Z,81.71
2022-10-23T22:02:45.519Z,81.70
2022-10-23T22:05:18.214Z,81.73
2022-10-23T22:07:50.617Z,81.70
2022-10-23T22:10:23.146Z,81.81
2022-10-23T22:12:57.098Z,81.58
2022-10-23T22:15:29.708Z,81.62
2022-10-23T22:18:02.763Z,81.60
2022-10-23T22:20:35.359Z,81.53
2022-10-23T22:23:07.879Z,81.44
2022-10-23T22:25:43.539Z,81.40
2022-10-23T22:28:17.497Z,81.23
2022-10-23T22:30:50.026Z,81.22
2022-10-23T22:33:22.591Z,81.10
2022-10-23T22:36:00.679Z,81.22
2022-10-23T22:38:33.052Z,81.11
2022-10-23T22:41:05.960Z,81.01
2022-10-23T22:43:39.884Z,81.08
2022-10-23T22:46:14.343Z,81.05
2022-10-23T22:48:47.159Z,81.07
2022-10-23T22:51:22.093Z,81.09
2022-10-23T22:53:55.266Z,81.07
2022-10-23T22:56:29.420Z,80.88
2022-10-23T22:59:04.227Z,81.00
2022-10-23T23:01:38.337Z,80.88
2022-10-23T23:04:19.818Z,80.90
2022-10-23T23:07:05.285Z,80.76
2022-10-23T23:09:39.028Z,80.81
2022-10-23T23:12:13.351Z,80.90
2022-10-23T23:14:47.540Z,80.93
2022-10-23T23:17:19.985Z,80.76
2022-10-23T23:19:52.355Z,80.65
2022-10-23T23:25:02.286Z,80.66
2022-10-23T23:27:36.386Z,80.83
2022-10-23T23:30:11.218Z,80.66
2022-10-23T23:32:44.035Z,80.51
2022-10-23T23:35:17.038Z,80.61
2022-10-23T23:37:49.431Z,80.42
2022-10-23T23:40:22.007Z,80.44
2022-10-23T23:42:54.416Z,80.50
2022-10-23T23:45:28.409Z,80.25
2022-10-23T23:48:00.914Z,80.28
2022-10-23T23:50:33.326Z,80.37
2022-10-23T23:53:05.883Z,80.19
2022-10-23T23:55:38.541Z,80.21
2022-10-23T23:58:12.047Z,80.30
